sensor_id;sensor_type;location;lat;lon;timestamp;temperature;humidity
8463;DHT22;4268;52.506;13.462;2022-09-20T00:01:09;9.60;99.90
8463;DHT22;4268;52.506;13.462;2022-09-20T00:03:37;9.70;99.90
8463;DHT22;4268;52.506;13.462;2022-09-20T00:06:05;9.60;99.90
8463;DHT22;4268;52.506;13.462;2022-09-20T00:08:31;9.60;99.90
8463;DHT22;4268;52.506;13.462;2022-09-20T00:11:05;9.60;99.90
8463;DHT22;4268;52.506;13.462;2022-09-20T00:13:32;9.60;99.90
8463;DHT22;4268;52.506;13.462;2022-09-20T00:15:58;9.60;99.90
8463;DHT22;4268;52.506;13.462;2022-09-20T00:18:25;9.60;99.90
8463;DHT22;4268;52.506;13.462;2022-09-20T00:20:51;9.60;99.90
8463;DHT22;4268;52.506;13.462;2022-09-20T00:23:18;9.50;99.90
8463;DHT22;4268;52.506;13.462;2022-09-20T00:25:44;9.50;99.90
8463;DHT22;4268;52.506;13.462;2022-09-20T00:28:11;9.50;99.90
8463;DHT22;4268;52.506;13.462;2022-09-20T00:30:37;9.50;99.90
8463;DHT22;4268;52.506;13.462;2022-09-20T00:33:04;9.50;99.90
8463;DHT22;4268;52.506;13.462;2022-09-20T00:35:29;9.50;99.90
8463;DHT22;4268;52.506;13.462;2022-09-20T00:37:55;9.40;99.90
8463;DHT22;4268;52.506;13.462;2022-09-20T00:40:23;8.80;99.90
8463;DHT22;4268;52.506;13.462;2022-09-20T00:42:49;8.70;99.90
8463;DHT22;4268;52.506;13.462;2022-09-20T00:45:21;9.40;99.90
8463;DHT22;4268;52.506;13.462;2022-09-20T00:47:52;9.40;99.90
8463;DHT22;4268;52.506;13.462;2022-09-20T00:50:38;9.00;99.90
8463;DHT22;4268;52.506;13.462;2022-09-20T00:53:19;9.30;99.90
8463;DHT22;4268;52.506;13.462;2022-09-20T00:56:00;9.20;99.90
8463;DHT22;4268;52.506;13.462;2022-09-20T00:58:30;9.10;99.90
8463;DHT22;4268;52.506;13.462;2022-09-20T01:00:57;9.30;99.90
8463;DHT22;4268;52.506;13.462;2022-09-20T01:03:26;9.20;99.90
8463;DHT22;4268;52.506;13.462;2022-09-20T01:05:53;9.20;99.90
8463;DHT22;4268;52.506;13.462;2022-09-20T01:08:20;9.20;99.90
8463;DHT22;4268;52.506;13.462;2022-09-20T01:10:49;9.20;99.90
8463;DHT22;4268;52.506;13.462;2022-09-20T01:13:14;8.80;99.90
8463;DHT22;4268;52.506;13.462;2022-09-20T01:15:41;9.30;99.90
8463;DHT22;4268;52.506;13.462;2022-09-20T01:18:08;9.20;99.90
8463;DHT22;4268;52.506;13.462;2022-09-20T01:20:37;9.20;99.90
8463;DHT22;4268;52.506;13.462;2022-09-20T01:23:27;9.20;99.90
8463;DHT22;4268;52.506;13.462;2022-09-20T01:28:37;9.30;99.90
8463;DHT22;4268;52.506;13.462;2022-09-20T01:31:24;9.30;99.90
8463;DHT22;4268;52.506;13.462;2022-09-20T01:34:10;9.30;99.90
8463;DHT22;4268;52.506;13.462;2022-09-20T01:39:45;9.30;99.90
8463;DHT22;4268;52.506;13.462;2022-09-20T01:42:14;9.20;99.90
8463;DHT22;4268;52.506;13.462;2022-09-20T01:44:59;9.20;99.90
8463;DHT22;4268;52.506;13.462;2022-09-20T01:47:37;9.20;99.90
8463;DHT22;4268;52.506;13.462;2022-09-20T01:50:35;9.20;99.90
8463;DHT22;4268;52.506;13.462;2022-09-20T01:53:29;9.10;99.90
8463;DHT22;4268;52.506;13.462;2022-09-20T01:59:25;9.10;99.90
8463;DHT22;4268;52.506;13.462;2022-09-20T02:02:01;9.10;99.90
8463;DHT22;4268;52.506;13.462;2022-09-20T02:30:34;9.10;99.90
8463;DHT22;4268;52.506;13.462;2022-09-20T02:33:22;9.10;99.90
8463;DHT22;4268;52.506;13.462;2022-09-20T02:39:15;9.20;99.90
8463;DHT22;4268;52.506;13.462;2022-09-20T02:41:52;9.20;99.90
8463;DHT22;4268;52.506;13.462;2022-09-20T02:50:21;9.20;99.90
8463;DHT22;4268;52.506;13.462;2022-09-20T02:52:56;9.30;99.90
8463;DHT22;4268;52.506;13.462;2022-09-20T02:55:43;9.20;99.90
8463;DHT22;4268;52.506;13.462;2022-09-20T03:00:59;9.30;99.90
8463;DHT22;4268;52.506;13.462;2022-09-20T03:04:01;9.20;99.90
8463;DHT22;4268;52.506;13.462;2022-09-20T03:07:00;9.30;99.90
8463;DHT22;4268;52.506;13.462;2022-09-20T03:09:33;9.20;99.90
8463;DHT22;4268;52.506;13.462;2022-09-20T03:12:12;9.10;99.90
8463;DHT22;4268;52.506;13.462;2022-09-20T03:15:06;9.20;99.90
8463;DHT22;4268;52.506;13.462;2022-09-20T03:17:44;9.20;99.90
8463;DHT22;4268;52.506;13.462;2022-09-20T03:25:56;9.10;99.90
8463;DHT22;4268;52.506;13.462;2022-09-20T03:31:37;9.10;99.90
8463;DHT22;4268;52.506;13.462;2022-09-20T03:37:18;9.10;99.90
8463;DHT22;4268;52.506;13.462;2022-09-20T03:42:53;9.20;99.90
8463;DHT22;4268;52.506;13.462;2022-09-20T03:45:51;9.30;99.90
8463;DHT22;4268;52.506;13.462;2022-09-20T03:48:47;9.30;99.90
8463;DHT22;4268;52.506;13.462;2022-09-20T03:51:37;9.30;99.90
8463;DHT22;4268;52.506;13.462;2022-09-20T03:56:58;9.40;99.90
8463;DHT22;4268;52.506;13.462;2022-09-20T04:05:06;9.60;99.90
8463;DHT22;4268;52.506;13.462;2022-09-20T04:10:50;9.60;99.90
8463;DHT22;4268;52.506;13.462;2022-09-20T04:26:57;9.80;99.90
8463;DHT22;4268;52.506;13.462;2022-09-20T04:29:48;9.80;99.90
8463;DHT22;4268;52.506;13.462;2022-09-20T04:32:29;9.80;99.90
8463;DHT22;4268;52.506;13.462;2022-09-20T04:35:23;9.80;99.90
8463;DHT22;4268;52.506;13.462;2022-09-20T04:38:15;9.80;99.90
8463;DHT22;4268;52.506;13.462;2022-09-20T04:54:57;9.70;99.90
8463;DHT22;4268;52.506;13.462;2022-09-20T05:00:14;9.70;99.90
8463;DHT22;4268;52.506;13.462;2022-09-20T05:11:03;9.70;99.90
8463;DHT22;4268;52.506;13.462;2022-09-20T05:13:53;9.70;99.90
8463;DHT22;4268;52.506;13.462;2022-09-20T05:17:01;9.80;99.90
8463;DHT22;4268;52.506;13.462;2022-09-20T05:19:30;10.00;99.90
8463;DHT22;4268;52.506;13.462;2022-09-20T05:22:25;9.90;99.90
8463;DHT22;4268;52.506;13.462;2022-09-20T05:30:48;9.90;99.90
8463;DHT22;4268;52.506;13.462;2022-09-20T05:39:17;10.20;99.90
8463;DHT22;4268;52.506;13.462;2022-09-20T05:41:56;10.30;99.90
8463;DHT22;4268;52.506;13.462;2022-09-20T05:52:26;10.70;99.90
8463;DHT22;4268;52.506;13.462;2022-09-20T05:55:07;10.80;99.90
8463;DHT22;4268;52.506;13.462;2022-09-20T06:00:23;11.00;99.90
8463;DHT22;4268;52.506;13.462;2022-09-20T06:03:14;11.20;99.90
8463;DHT22;4268;52.506;13.462;2022-09-20T06:06:03;11.20;99.90
8463;DHT22;4268;52.506;13.462;2022-09-20T06:08:47;11.40;99.90
8463;DHT22;4268;52.506;13.462;2022-09-20T06:11:34;11.50;99.90
8463;DHT22;4268;52.506;13.462;2022-09-20T06:16:48;11.90;99.90
8463;DHT22;4268;52.506;13.462;2022-09-20T06:19:40;12.00;99.90
8463;DHT22;4268;52.506;13.462;2022-09-20T06:22:31;12.20;99.90
8463;DHT22;4268;52.506;13.462;2022-09-20T06:25:01;12.30;99.90
8463;DHT22;4268;52.506;13.462;2022-09-20T06:27:36;12.40;99.90
8463;DHT22;4268;52.506;13.462;2022-09-20T06:30:06;12.60;99.90
8463;DHT22;4268;52.506;13.462;2022-09-20T06:32:55;12.70;99.90
8463;DHT22;4268;52.506;13.462;2022-09-20T06:35:24;12.80;99.90
8463;DHT22;4268;52.506;13.462;2022-09-20T06:38:02;12.70;99.90
8463;DHT22;4268;52.506;13.462;2022-09-20T06:40:49;12.70;99.90
8463;DHT22;4268;52.506;13.462;2022-09-20T06:43:37;13.20;99.90
8463;DHT22;4268;52.506;13.462;2022-09-20T06:46:04;13.30;99.90
8463;DHT22;4268;52.506;13.462;2022-09-20T06:48:30;13.70;99.90
8463;DHT22;4268;52.506;13.462;2022-09-20T06:50:56;14.90;99.90
8463;DHT22;4268;52.506;13.462;2022-09-20T06:53:27;16.50;99.90
8463;DHT22;4268;52.506;13.462;2022-09-20T06:55:53;17.80;99.90
8463;DHT22;4268;52.506;13.462;2022-09-20T06:58:19;18.90;99.90
8463;DHT22;4268;52.506;13.462;2022-09-20T07:00:45;20.40;99.40
8463;DHT22;4268;52.506;13.462;2022-09-20T07:03:11;21.00;95.70
8463;DHT22;4268;52.506;13.462;2022-09-20T07:05:37;20.40;95.40
8463;DHT22;4268;52.506;13.462;2022-09-20T07:08:03;19.30;95.40
8463;DHT22;4268;52.506;13.462;2022-09-20T07:10:29;18.20;97.30
8463;DHT22;4268;52.506;13.462;2022-09-20T07:12:58;17.20;98.30
8463;DHT22;4268;52.506;13.462;2022-09-20T07:15:26;16.40;99.90
8463;DHT22;4268;52.506;13.462;2022-09-20T07:17:52;15.90;99.90
8463;DHT22;4268;52.506;13.462;2022-09-20T07:20:18;15.70;99.90
8463;DHT22;4268;52.506;13.462;2022-09-20T07:22:45;15.20;99.90
8463;DHT22;4268;52.506;13.462;2022-09-20T07:25:11;14.80;99.90
8463;DHT22;4268;52.506;13.462;2022-09-20T07:27:36;14.60;99.90
8463;DHT22;4268;52.506;13.462;2022-09-20T07:30:02;14.50;99.90
8463;DHT22;4268;52.506;13.462;2022-09-20T07:32:28;14.60;99.90
8463;DHT22;4268;52.506;13.462;2022-09-20T07:34:54;14.60;99.90
8463;DHT22;4268;52.506;13.462;2022-09-20T07:37:20;14.80;99.90
8463;DHT22;4268;52.506;13.462;2022-09-20T07:39:45;15.90;99.90
8463;DHT22;4268;52.506;13.462;2022-09-20T07:42:11;17.90;99.90
8463;DHT22;4268;52.506;13.462;2022-09-20T07:44:37;19.60;99.30
8463;DHT22;4268;52.506;13.462;2022-09-20T07:47:07;21.00;96.70
8463;DHT22;4268;52.506;13.462;2022-09-20T07:49:38;21.70;94.10
8463;DHT22;4268;52.506;13.462;2022-09-20T07:52:04;22.50;91.90
8463;DHT22;4268;52.506;13.462;2022-09-20T07:54:30;22.90;91.00
8463;DHT22;4268;52.506;13.462;2022-09-20T07:56:55;23.20;89.60
8463;DHT22;4268;52.506;13.462;2022-09-20T07:59:21;23.60;87.70
8463;DHT22;4268;52.506;13.462;2022-09-20T08:01:47;23.30;87.00
8463;DHT22;4268;52.506;13.462;2022-09-20T08:04:12;22.70;88.00
8463;DHT22;4268;52.506;13.462;2022-09-20T08:06:40;21.50;90.10
8463;DHT22;4268;52.506;13.462;2022-09-20T08:09:07;20.30;91.30
8463;DHT22;4268;52.506;13.462;2022-09-20T08:11:33;19.00;92.70
8463;DHT22;4268;52.506;13.462;2022-09-20T08:14:01;18.20;94.20
8463;DHT22;4268;52.506;13.462;2022-09-20T08:16:28;17.50;96.10
8463;DHT22;4268;52.506;13.462;2022-09-20T08:18:59;16.80;97.30
8463;DHT22;4268;52.506;13.462;2022-09-20T08:21:29;16.50;98.30
8463;DHT22;4268;52.506;13.462;2022-09-20T08:23:56;16.20;99.20
8463;DHT22;4268;52.506;13.462;2022-09-20T08:26:23;15.90;99.90
8463;DHT22;4268;52.506;13.462;2022-09-20T08:28:54;15.70;99.90
8463;DHT22;4268;52.506;13.462;2022-09-20T08:31:22;15.50;99.90
8463;DHT22;4268;52.506;13.462;2022-09-20T08:33:49;15.30;99.90
8463;DHT22;4268;52.506;13.462;2022-09-20T08:36:23;15.00;99.90
8463;DHT22;4268;52.506;13.462;2022-09-20T08:38:50;14.80;99.90
8463;DHT22;4268;52.506;13.462;2022-09-20T08:41:26;15.00;99.90
8463;DHT22;4268;52.506;13.462;2022-09-20T08:44:14;14.60;99.90
8463;DHT22;4268;52.506;13.462;2022-09-20T08:46:47;14.60;99.90
8463;DHT22;4268;52.506;13.462;2022-09-20T08:49:27;14.60;99.90
8463;DHT22;4268;52.506;13.462;2022-09-20T08:51:54;14.60;99.90
8463;DHT22;4268;52.506;13.462;2022-09-20T08:54:23;14.50;99.90
8463;DHT22;4268;52.506;13.462;2022-09-20T08:56:49;14.60;99.90
8463;DHT22;4268;52.506;13.462;2022-09-20T08:59:18;14.50;99.90
8463;DHT22;4268;52.506;13.462;2022-09-20T09:01:49;14.50;99.90
8463;DHT22;4268;52.506;13.462;2022-09-20T09:04:21;14.50;99.90
8463;DHT22;4268;52.506;13.462;2022-09-20T09:06:48;14.50;99.90
8463;DHT22;4268;52.506;13.462;2022-09-20T09:09:22;14.60;99.90
8463;DHT22;4268;52.506;13.462;2022-09-20T09:11:49;14.60;99.90
8463;DHT22;4268;52.506;13.462;2022-09-20T09:17:08;14.60;99.90
8463;DHT22;4268;52.506;13.462;2022-09-20T09:22:43;14.70;99.90
8463;DHT22;4268;52.506;13.462;2022-09-20T09:28:01;14.70;99.90
8463;DHT22;4268;52.506;13.462;2022-09-20T09:30:36;14.80;99.90
8463;DHT22;4268;52.506;13.462;2022-09-20T09:36:06;14.90;99.90
8463;DHT22;4268;52.506;13.462;2022-09-20T09:38:34;15.00;99.90
8463;DHT22;4268;52.506;13.462;2022-09-20T09:41:04;15.10;99.90
8463;DHT22;4268;52.506;13.462;2022-09-20T09:43:33;15.20;99.90
8463;DHT22;4268;52.506;13.462;2022-09-20T09:46:21;15.30;99.90
8463;DHT22;4268;52.506;13.462;2022-09-20T09:49:04;15.60;99.90
8463;DHT22;4268;52.506;13.462;2022-09-20T09:51:32;15.70;99.90
8463;DHT22;4268;52.506;13.462;2022-09-20T09:53:57;16.00;99.90
8463;DHT22;4268;52.506;13.462;2022-09-20T10:05:26;16.30;99.90
8463;DHT22;4268;52.506;13.462;2022-09-20T10:08:26;16.60;99.90
8463;DHT22;4268;52.506;13.462;2022-09-20T10:11:19;16.80;99.90
8463;DHT22;4268;52.506;13.462;2022-09-20T10:17:03;17.10;99.90
8463;DHT22;4268;52.506;13.462;2022-09-20T10:19:51;17.10;99.90
8463;DHT22;4268;52.506;13.462;2022-09-20T10:22:41;17.10;99.90
8463;DHT22;4268;52.506;13.462;2022-09-20T10:25:42;17.50;99.90
8463;DHT22;4268;52.506;13.462;2022-09-20T10:28:39;17.60;98.40
8463;DHT22;4268;52.506;13.462;2022-09-20T10:31:46;18.00;98.50
8463;DHT22;4268;52.506;13.462;2022-09-20T10:37:15;18.00;97.80
8463;DHT22;4268;52.506;13.462;2022-09-20T10:39:45;17.70;98.80
8463;DHT22;4268;52.506;13.462;2022-09-20T10:45:17;17.40;99.00
8463;DHT22;4268;52.506;13.462;2022-09-20T10:48:04;16.90;99.90
8463;DHT22;4268;52.506;13.462;2022-09-20T10:50:48;16.70;99.90
8463;DHT22;4268;52.506;13.462;2022-09-20T10:53:34;16.30;99.90
8463;DHT22;4268;52.506;13.462;2022-09-20T10:56:08;16.00;99.90
8463;DHT22;4268;52.506;13.462;2022-09-20T10:59:05;15.90;99.90
8463;DHT22;4268;52.506;13.462;2022-09-20T11:04:11;15.20;99.90
8463;DHT22;4268;52.506;13.462;2022-09-20T11:07:01;14.90;99.90
8463;DHT22;4268;52.506;13.462;2022-09-20T11:09:34;14.80;99.90
8463;DHT22;4268;52.506;13.462;2022-09-20T11:12:13;14.70;99.90
8463;DHT22;4268;52.506;13.462;2022-09-20T11:14:58;14.60;99.90
8463;DHT22;4268;52.506;13.462;2022-09-20T11:17:31;14.40;99.90
8463;DHT22;4268;52.506;13.462;2022-09-20T11:20:05;14.20;99.90
8463;DHT22;4268;52.506;13.462;2022-09-20T11:22:45;13.70;99.90
8463;DHT22;4268;52.506;13.462;2022-09-20T11:25:19;13.40;99.90
8463;DHT22;4268;52.506;13.462;2022-09-20T11:27:50;13.10;99.90
8463;DHT22;4268;52.506;13.462;2022-09-20T11:30:19;12.80;99.90
8463;DHT22;4268;52.506;13.462;2022-09-20T11:32:50;12.80;99.90
8463;DHT22;4268;52.506;13.462;2022-09-20T11:35:28;12.10;99.90
8463;DHT22;4268;52.506;13.462;2022-09-20T11:38:09;12.60;99.90
8463;DHT22;4268;52.506;13.462;2022-09-20T11:40:41;12.70;99.90
8463;DHT22;4268;52.506;13.462;2022-09-20T11:43:10;12.70;99.90
8463;DHT22;4268;52.506;13.462;2022-09-20T11:45:38;12.70;99.90
8463;DHT22;4268;52.506;13.462;2022-09-20T11:48:28;12.80;99.90
8463;DHT22;4268;52.506;13.462;2022-09-20T11:53:57;13.00;99.90
8463;DHT22;4268;52.506;13.462;2022-09-20T11:56:30;13.00;99.90
8463;DHT22;4268;52.506;13.462;2022-09-20T11:59:02;13.10;99.90
8463;DHT22;4268;52.506;13.462;2022-09-20T12:01:36;13.20;99.90
8463;DHT22;4268;52.506;13.462;2022-09-20T12:04:11;13.20;99.90
8463;DHT22;4268;52.506;13.462;2022-09-20T12:06:43;14.30;99.90
8463;DHT22;4268;52.506;13.462;2022-09-20T12:09:34;12.40;99.90
8463;DHT22;4268;52.506;13.462;2022-09-20T12:12:24;13.10;99.90
8463;DHT22;4268;52.506;13.462;2022-09-20T12:14:54;13.20;99.90
8463;DHT22;4268;52.506;13.462;2022-09-20T12:26:34;13.30;99.90
8463;DHT22;4268;52.506;13.462;2022-09-20T12:29:00;13.40;99.90
8463;DHT22;4268;52.506;13.462;2022-09-20T12:34:00;13.60;99.90
8463;DHT22;4268;52.506;13.462;2022-09-20T12:36:28;13.70;99.90
8463;DHT22;4268;52.506;13.462;2022-09-20T12:39:03;13.80;99.90
8463;DHT22;4268;52.506;13.462;2022-09-20T12:47:23;14.30;99.90
8463;DHT22;4268;52.506;13.462;2022-09-20T12:49:51;14.40;99.90
8463;DHT22;4268;52.506;13.462;2022-09-20T12:55:44;14.50;99.90
8463;DHT22;4268;52.506;13.462;2022-09-20T13:05:50;14.60;99.90
8463;DHT22;4268;52.506;13.462;2022-09-20T13:19:17;15.40;99.90
8463;DHT22;4268;52.506;13.462;2022-09-20T13:22:11;14.90;99.90
8463;DHT22;4268;52.506;13.462;2022-09-20T13:24:47;15.00;99.90
8463;DHT22;4268;52.506;13.462;2022-09-20T13:27:34;15.10;99.90
8463;DHT22;4268;52.506;13.462;2022-09-20T13:30:18;14.90;99.90
8463;DHT22;4268;52.506;13.462;2022-09-20T13:32:44;15.10;99.90
8463;DHT22;4268;52.506;13.462;2022-09-20T13:35:14;15.30;99.90
8463;DHT22;4268;52.506;13.462;2022-09-20T13:40:24;15.50;99.90
8463;DHT22;4268;52.506;13.462;2022-09-20T13:42:54;15.70;99.90
8463;DHT22;4268;52.506;13.462;2022-09-20T13:45:24;15.50;99.90
8463;DHT22;4268;52.506;13.462;2022-09-20T13:47:52;15.50;99.90
8463;DHT22;4268;52.506;13.462;2022-09-20T13:50:27;15.60;99.90
8463;DHT22;4268;52.506;13.462;2022-09-20T13:52:59;15.50;99.90
8463;DHT22;4268;52.506;13.462;2022-09-20T13:55:37;15.40;99.90
8463;DHT22;4268;52.506;13.462;2022-09-20T13:58:08;15.40;99.90
8463;DHT22;4268;52.506;13.462;2022-09-20T14:00:46;15.30;99.90
8463;DHT22;4268;52.506;13.462;2022-09-20T14:03:16;15.40;99.90
8463;DHT22;4268;52.506;13.462;2022-09-20T14:05:50;15.20;99.90
8463;DHT22;4268;52.506;13.462;2022-09-20T14:08:30;15.40;99.90
8463;DHT22;4268;52.506;13.462;2022-09-20T14:11:16;15.50;99.90
8463;DHT22;4268;52.506;13.462;2022-09-20T14:14:02;15.60;99.90
8463;DHT22;4268;52.506;13.462;2022-09-20T14:16:33;15.50;99.90
8463;DHT22;4268;52.506;13.462;2022-09-20T14:19:04;15.50;99.90
8463;DHT22;4268;52.506;13.462;2022-09-20T14:21:33;15.50;99.90
8463;DHT22;4268;52.506;13.462;2022-09-20T14:24:02;15.30;99.90
8463;DHT22;4268;52.506;13.462;2022-09-20T14:26:32;15.30;99.90
8463;DHT22;4268;52.506;13.462;2022-09-20T14:29:27;16.10;99.90
8463;DHT22;4268;52.506;13.462;2022-09-20T14:31:55;15.40;99.90
8463;DHT22;4268;52.506;13.462;2022-09-20T14:34:23;15.40;99.90
8463;DHT22;4268;52.506;13.462;2022-09-20T14:36:49;15.30;99.90
8463;DHT22;4268;52.506;13.462;2022-09-20T14:39:19;15.10;99.90
8463;DHT22;4268;52.506;13.462;2022-09-20T14:41:44;15.00;99.90
8463;DHT22;4268;52.506;13.462;2022-09-20T14:44:25;15.10;99.90
8463;DHT22;4268;52.506;13.462;2022-09-20T14:46:54;14.90;99.90
8463;DHT22;4268;52.506;13.462;2022-09-20T14:51:49;14.80;99.90
8463;DHT22;4268;52.506;13.462;2022-09-20T14:54:26;14.90;99.90
8463;DHT22;4268;52.506;13.462;2022-09-20T14:56:53;14.90;99.90
8463;DHT22;4268;52.506;13.462;2022-09-20T14:59:26;14.90;99.90
8463;DHT22;4268;52.506;13.462;2022-09-20T15:01:58;14.70;99.90
8463;DHT22;4268;52.506;13.462;2022-09-20T15:04:25;14.70;99.90
8463;DHT22;4268;52.506;13.462;2022-09-20T15:06:53;14.60;99.90
8463;DHT22;4268;52.506;13.462;2022-09-20T15:09:20;14.60;99.90
8463;DHT22;4268;52.506;13.462;2022-09-20T15:11:46;14.50;99.90
8463;DHT22;4268;52.506;13.462;2022-09-20T15:14:14;13.20;99.90
8463;DHT22;4268;52.506;13.462;2022-09-20T15:16:40;13.70;99.90
8463;DHT22;4268;52.506;13.462;2022-09-20T15:19:05;14.30;99.90
8463;DHT22;4268;52.506;13.462;2022-09-20T15:21:32;14.30;99.90
8463;DHT22;4268;52.506;13.462;2022-09-20T15:23:58;14.30;99.90
8463;DHT22;4268;52.506;13.462;2022-09-20T15:26:23;14.20;99.90
8463;DHT22;4268;52.506;13.462;2022-09-20T15:28:51;14.50;99.90
8463;DHT22;4268;52.506;13.462;2022-09-20T15:31:17;14.50;99.90
8463;DHT22;4268;52.506;13.462;2022-09-20T15:33:44;14.50;99.90
8463;DHT22;4268;52.506;13.462;2022-09-20T15:36:10;14.40;99.90
8463;DHT22;4268;52.506;13.462;2022-09-20T15:38:35;14.30;99.90
8463;DHT22;4268;52.506;13.462;2022-09-20T15:41:02;14.30;99.90
8463;DHT22;4268;52.506;13.462;2022-09-20T15:43:29;14.20;99.90
8463;DHT22;4268;52.506;13.462;2022-09-20T15:45:57;14.30;99.90
8463;DHT22;4268;52.506;13.462;2022-09-20T15:48:28;13.80;99.90
8463;DHT22;4268;52.506;13.462;2022-09-20T15:51:05;13.50;99.90
8463;DHT22;4268;52.506;13.462;2022-09-20T15:53:37;13.30;99.90
8463;DHT22;4268;52.506;13.462;2022-09-20T15:56:04;13.20;99.90
8463;DHT22;4268;52.506;13.462;2022-09-20T15:58:37;13.00;99.90
8463;DHT22;4268;52.506;13.462;2022-09-20T16:01:07;12.90;99.90
8463;DHT22;4268;52.506;13.462;2022-09-20T16:03:33;12.80;99.90
8463;DHT22;4268;52.506;13.462;2022-09-20T16:06:01;12.80;99.90
8463;DHT22;4268;52.506;13.462;2022-09-20T16:08:35;12.30;99.90
8463;DHT22;4268;52.506;13.462;2022-09-20T16:11:01;12.60;99.90
8463;DHT22;4268;52.506;13.462;2022-09-20T16:13:27;12.50;99.90
8463;DHT22;4268;52.506;13.462;2022-09-20T16:15:57;12.50;99.90
8463;DHT22;4268;52.506;13.462;2022-09-20T16:18:24;12.50;99.90
8463;DHT22;4268;52.506;13.462;2022-09-20T16:21:09;12.40;99.90
8463;DHT22;4268;52.506;13.462;2022-09-20T16:23:37;12.40;99.90
8463;DHT22;4268;52.506;13.462;2022-09-20T16:26:05;12.40;99.90
8463;DHT22;4268;52.506;13.462;2022-09-20T16:28:31;12.40;99.90
8463;DHT22;4268;52.506;13.462;2022-09-20T16:30:58;12.50;99.90
8463;DHT22;4268;52.506;13.462;2022-09-20T16:33:24;12.40;99.90
8463;DHT22;4268;52.506;13.462;2022-09-20T16:35:49;12.40;99.90
8463;DHT22;4268;52.506;13.462;2022-09-20T16:38:15;12.30;99.90
8463;DHT22;4268;52.506;13.462;2022-09-20T16:40:40;12.30;99.90
8463;DHT22;4268;52.506;13.462;2022-09-20T16:43:06;12.20;99.90
8463;DHT22;4268;52.506;13.462;2022-09-20T16:45:34;12.20;99.90
8463;DHT22;4268;52.506;13.462;2022-09-20T16:47:59;12.20;99.90
8463;DHT22;4268;52.506;13.462;2022-09-20T16:50:27;12.10;99.90
8463;DHT22;4268;52.506;13.462;2022-09-20T16:52:53;12.10;99.90
8463;DHT22;4268;52.506;13.462;2022-09-20T16:55:18;12.10;99.90
8463;DHT22;4268;52.506;13.462;2022-09-20T16:57:50;12.10;99.90
8463;DHT22;4268;52.506;13.462;2022-09-20T17:00:16;12.00;99.90
8463;DHT22;4268;52.506;13.462;2022-09-20T17:02:49;12.00;99.90
8463;DHT22;4268;52.506;13.462;2022-09-20T17:05:15;12.00;99.90
8463;DHT22;4268;52.506;13.462;2022-09-20T17:07:42;12.00;99.90
8463;DHT22;4268;52.506;13.462;2022-09-20T17:10:09;12.00;99.90
8463;DHT22;4268;52.506;13.462;2022-09-20T17:12:35;12.80;99.90
8463;DHT22;4268;52.506;13.462;2022-09-20T17:15:07;12.00;99.90
8463;DHT22;4268;52.506;13.462;2022-09-20T17:17:32;12.00;99.90
8463;DHT22;4268;52.506;13.462;2022-09-20T17:19:58;11.90;99.90
8463;DHT22;4268;52.506;13.462;2022-09-20T17:22:25;11.90;99.90
8463;DHT22;4268;52.506;13.462;2022-09-20T17:24:51;11.90;99.90
8463;DHT22;4268;52.506;13.462;2022-09-20T17:27:17;11.80;99.90
8463;DHT22;4268;52.506;13.462;2022-09-20T17:29:43;11.80;99.90
8463;DHT22;4268;52.506;13.462;2022-09-20T17:32:09;10.30;99.90
8463;DHT22;4268;52.506;13.462;2022-09-20T17:34:35;11.70;99.90
8463;DHT22;4268;52.506;13.462;2022-09-20T17:37:00;11.70;99.90
8463;DHT22;4268;52.506;13.462;2022-09-20T17:39:27;11.60;99.90
8463;DHT22;4268;52.506;13.462;2022-09-20T17:41:53;11.60;99.90
8463;DHT22;4268;52.506;13.462;2022-09-20T17:44:22;11.60;99.90
8463;DHT22;4268;52.506;13.462;2022-09-20T17:46:49;11.50;99.90
8463;DHT22;4268;52.506;13.462;2022-09-20T17:49:17;11.50;99.90
8463;DHT22;4268;52.506;13.462;2022-09-20T17:51:46;11.50;99.90
8463;DHT22;4268;52.506;13.462;2022-09-20T17:54:12;11.50;99.90
8463;DHT22;4268;52.506;13.462;2022-09-20T17:56:39;11.50;99.90
8463;DHT22;4268;52.506;13.462;2022-09-20T17:59:06;11.40;99.90
8463;DHT22;4268;52.506;13.462;2022-09-20T18:01:33;11.50;99.90
8463;DHT22;4268;52.506;13.462;2022-09-20T18:04:00;11.50;99.90
8463;DHT22;4268;52.506;13.462;2022-09-20T18:06:31;11.50;99.90
8463;DHT22;4268;52.506;13.462;2022-09-20T18:09:03;11.50;99.90
8463;DHT22;4268;52.506;13.462;2022-09-20T18:11:32;11.20;99.90
8463;DHT22;4268;52.506;13.462;2022-09-20T18:13:58;11.50;99.90
8463;DHT22;4268;52.506;13.462;2022-09-20T18:16:25;11.50;99.90
8463;DHT22;4268;52.506;13.462;2022-09-20T18:18:50;11.50;99.90
8463;DHT22;4268;52.506;13.462;2022-09-20T18:21:23;11.40;99.90
8463;DHT22;4268;52.506;13.462;2022-09-20T18:23:50;11.30;99.90
8463;DHT22;4268;52.506;13.462;2022-09-20T18:26:18;11.30;99.90
8463;DHT22;4268;52.506;13.462;2022-09-20T18:28:50;11.40;99.90
8463;DHT22;4268;52.506;13.462;2022-09-20T18:31:16;11.30;99.90
8463;DHT22;4268;52.506;13.462;2022-09-20T18:33:43;11.20;99.90
8463;DHT22;4268;52.506;13.462;2022-09-20T18:36:08;11.20;99.90
8463;DHT22;4268;52.506;13.462;2022-09-20T18:38:34;11.20;99.90
8463;DHT22;4268;52.506;13.462;2022-09-20T18:41:00;11.10;99.90
8463;DHT22;4268;52.506;13.462;2022-09-20T18:43:27;11.10;99.90
8463;DHT22;4268;52.506;13.462;2022-09-20T18:45:55;11.10;99.90
8463;DHT22;4268;52.506;13.462;2022-09-20T18:48:22;11.00;99.90
8463;DHT22;4268;52.506;13.462;2022-09-20T18:51:01;11.00;99.90
8463;DHT22;4268;52.506;13.462;2022-09-20T18:53:29;11.00;99.90
8463;DHT22;4268;52.506;13.462;2022-09-20T18:55:56;10.90;99.90
8463;DHT22;4268;52.506;13.462;2022-09-20T18:58:29;10.90;99.90
8463;DHT22;4268;52.506;13.462;2022-09-20T19:01:14;10.90;99.90
8463;DHT22;4268;52.506;13.462;2022-09-20T19:06:45;10.90;99.90
8463;DHT22;4268;52.506;13.462;2022-09-20T19:09:23;10.80;99.90
8463;DHT22;4268;52.506;13.462;2022-09-20T19:12:11;10.80;99.90
8463;DHT22;4268;52.506;13.462;2022-09-20T19:17:18;10.80;99.90
8463;DHT22;4268;52.506;13.462;2022-09-20T19:19:55;10.80;99.90
8463;DHT22;4268;52.506;13.462;2022-09-20T19:22:37;10.70;99.90
8463;DHT22;4268;52.506;13.462;2022-09-20T19:27:40;10.70;99.90
8463;DHT22;4268;52.506;13.462;2022-09-20T19:30:06;10.60;99.90
8463;DHT22;4268;52.506;13.462;2022-09-20T19:32:32;10.60;99.90
8463;DHT22;4268;52.506;13.462;2022-09-20T19:34:58;10.60;99.90
8463;DHT22;4268;52.506;13.462;2022-09-20T19:37:40;10.60;99.90
8463;DHT22;4268;52.506;13.462;2022-09-20T19:40:26;10.60;99.90
8463;DHT22;4268;52.506;13.462;2022-09-20T19:43:09;10.50;99.90
8463;DHT22;4268;52.506;13.462;2022-09-20T19:48:39;10.50;99.90
8463;DHT22;4268;52.506;13.462;2022-09-20T19:51:09;10.50;99.90
8463;DHT22;4268;52.506;13.462;2022-09-20T19:53:36;10.50;99.90
8463;DHT22;4268;52.506;13.462;2022-09-20T19:56:22;10.50;99.90
8463;DHT22;4268;52.506;13.462;2022-09-20T19:58:50;10.50;99.90
8463;DHT22;4268;52.506;13.462;2022-09-20T20:03:50;10.50;99.90
8463;DHT22;4268;52.506;13.462;2022-09-20T20:06:25;10.40;99.90
8463;DHT22;4268;52.506;13.462;2022-09-20T20:11:43;10.40;99.90
8463;DHT22;4268;52.506;13.462;2022-09-20T20:14:39;10.40;99.90
8463;DHT22;4268;52.506;13.462;2022-09-20T20:17:46;10.30;99.90
8463;DHT22;4268;52.506;13.462;2022-09-20T20:20:21;10.30;99.90